sensor_id;sensor_type;location;lat;lon;timestamp;temperature;humidity
10276;DHT22;5183;51.190;6.820;2023-03-08T00:00:11;0.80;99.90
10276;DHT22;5183;51.190;6.820;2023-03-08T00:02:39;0.80;99.90
10276;DHT22;5183;51.190;6.820;2023-03-08T00:05:07;0.80;99.90
10276;DHT22;5183;51.190;6.820;2023-03-08T00:07:34;0.80;99.90
10276;DHT22;5183;51.190;6.820;2023-03-08T00:10:00;0.90;99.90
10276;DHT22;5183;51.190;6.820;2023-03-08T00:12:28;0.80;99.90
10276;DHT22;5183;51.190;6.820;2023-03-08T00:14:56;0.90;99.90
10276;DHT22;5183;51.190;6.820;2023-03-08T00:17:23;0.80;99.90
10276;DHT22;5183;51.190;6.820;2023-03-08T00:19:50;0.80;99.90
10276;DHT22;5183;51.190;6.820;2023-03-08T00:22:17;0.80;99.90
10276;DHT22;5183;51.190;6.820;2023-03-08T00:24:44;0.80;99.90
10276;DHT22;5183;51.190;6.820;2023-03-08T00:27:10;0.80;99.90
10276;DHT22;5183;51.190;6.820;2023-03-08T00:29:37;0.80;99.90
10276;DHT22;5183;51.190;6.820;2023-03-08T00:32:06;0.70;99.90
10276;DHT22;5183;51.190;6.820;2023-03-08T00:34:33;0.80;99.90
10276;DHT22;5183;51.190;6.820;2023-03-08T00:36:59;0.80;99.90
10276;DHT22;5183;51.190;6.820;2023-03-08T00:39:26;0.80;99.90
10276;DHT22;5183;51.190;6.820;2023-03-08T00:41:53;0.80;99.90
10276;DHT22;5183;51.190;6.820;2023-03-08T00:44:20;0.80;99.90
10276;DHT22;5183;51.190;6.820;2023-03-08T00:46:47;0.80;99.90
10276;DHT22;5183;51.190;6.820;2023-03-08T00:49:15;0.80;99.90
10276;DHT22;5183;51.190;6.820;2023-03-08T00:51:42;0.80;99.90
10276;DHT22;5183;51.190;6.820;2023-03-08T00:54:09;0.80;99.90
10276;DHT22;5183;51.190;6.820;2023-03-08T00:56:36;0.80;99.90
10276;DHT22;5183;51.190;6.820;2023-03-08T00:59:03;0.80;99.90
10276;DHT22;5183;51.190;6.820;2023-03-08T01:01:30;0.80;99.90
10276;DHT22;5183;51.190;6.820;2023-03-08T01:03:57;0.80;99.90
10276;DHT22;5183;51.190;6.820;2023-03-08T01:06:25;0.70;99.90
10276;DHT22;5183;51.190;6.820;2023-03-08T01:08:52;0.80;99.90
10276;DHT22;5183;51.190;6.820;2023-03-08T01:11:20;0.80;99.90
10276;DHT22;5183;51.190;6.820;2023-03-08T01:13:48;0.80;99.90
10276;DHT22;5183;51.190;6.820;2023-03-08T01:16:17;0.80;99.90
10276;DHT22;5183;51.190;6.820;2023-03-08T01:18:44;0.80;99.90
10276;DHT22;5183;51.190;6.820;2023-03-08T01:21:11;0.80;99.90
10276;DHT22;5183;51.190;6.820;2023-03-08T01:23:39;0.80;99.90
10276;DHT22;5183;51.190;6.820;2023-03-08T01:26:09;0.70;99.90
10276;DHT22;5183;51.190;6.820;2023-03-08T01:28:37;0.80;99.90
10276;DHT22;5183;51.190;6.820;2023-03-08T01:31:05;0.80;99.90
10276;DHT22;5183;51.190;6.820;2023-03-08T01:33:32;0.80;99.90
10276;DHT22;5183;51.190;6.820;2023-03-08T01:36:02;0.80;99.90
10276;DHT22;5183;51.190;6.820;2023-03-08T01:38:29;0.80;99.90
10276;DHT22;5183;51.190;6.820;2023-03-08T01:40:58;0.80;99.90
10276;DHT22;5183;51.190;6.820;2023-03-08T01:43:27;0.90;99.90
10276;DHT22;5183;51.190;6.820;2023-03-08T01:46:22;0.90;99.90
10276;DHT22;5183;51.190;6.820;2023-03-08T01:48:54;0.90;99.90
10276;DHT22;5183;51.190;6.820;2023-03-08T01:51:25;0.90;99.90
10276;DHT22;5183;51.190;6.820;2023-03-08T01:53:55;0.90;99.90
10276;DHT22;5183;51.190;6.820;2023-03-08T01:56:24;0.90;99.90
10276;DHT22;5183;51.190;6.820;2023-03-08T01:58:53;0.90;99.90
10276;DHT22;5183;51.190;6.820;2023-03-08T02:01:20;0.90;99.90
10276;DHT22;5183;51.190;6.820;2023-03-08T02:03:47;0.90;99.90
10276;DHT22;5183;51.190;6.820;2023-03-08T02:06:15;0.90;99.90
10276;DHT22;5183;51.190;6.820;2023-03-08T02:08:42;0.90;99.90
10276;DHT22;5183;51.190;6.820;2023-03-08T02:11:10;0.90;99.90
10276;DHT22;5183;51.190;6.820;2023-03-08T02:13:40;0.90;99.90
10276;DHT22;5183;51.190;6.820;2023-03-08T02:16:09;0.90;99.90
10276;DHT22;5183;51.190;6.820;2023-03-08T02:18:41;0.90;99.90
10276;DHT22;5183;51.190;6.820;2023-03-08T02:21:13;0.90;99.90
10276;DHT22;5183;51.190;6.820;2023-03-08T02:23:42;0.90;99.90
10276;DHT22;5183;51.190;6.820;2023-03-08T02:26:08;0.80;99.90
10276;DHT22;5183;51.190;6.820;2023-03-08T02:28:35;0.90;99.90
10276;DHT22;5183;51.190;6.820;2023-03-08T02:31:02;0.90;99.90
10276;DHT22;5183;51.190;6.820;2023-03-08T02:33:29;0.90;99.90
10276;DHT22;5183;51.190;6.820;2023-03-08T02:35:57;0.90;99.90
10276;DHT22;5183;51.190;6.820;2023-03-08T02:38:23;0.90;99.90
10276;DHT22;5183;51.190;6.820;2023-03-08T02:40:51;0.90;99.90
10276;DHT22;5183;51.190;6.820;2023-03-08T02:43:19;0.90;99.90
10276;DHT22;5183;51.190;6.820;2023-03-08T02:45:46;0.90;99.90
10276;DHT22;5183;51.190;6.820;2023-03-08T02:48:14;0.90;99.90
10276;DHT22;5183;51.190;6.820;2023-03-08T02:50:41;1.00;99.90
10276;DHT22;5183;51.190;6.820;2023-03-08T02:53:08;1.00;99.90
10276;DHT22;5183;51.190;6.820;2023-03-08T02:55:38;1.00;99.90
10276;DHT22;5183;51.190;6.820;2023-03-08T02:58:08;1.00;99.90
10276;DHT22;5183;51.190;6.820;2023-03-08T03:00:35;0.90;99.90
10276;DHT22;5183;51.190;6.820;2023-03-08T03:03:02;0.90;99.90
10276;DHT22;5183;51.190;6.820;2023-03-08T03:05:28;1.00;99.90
10276;DHT22;5183;51.190;6.820;2023-03-08T03:07:55;1.00;99.90
10276;DHT22;5183;51.190;6.820;2023-03-08T03:10:23;1.00;99.90
10276;DHT22;5183;51.190;6.820;2023-03-08T03:12:50;1.00;99.90
10276;DHT22;5183;51.190;6.820;2023-03-08T03:15:18;1.00;99.90
10276;DHT22;5183;51.190;6.820;2023-03-08T03:17:45;0.90;99.90
10276;DHT22;5183;51.190;6.820;2023-03-08T03:20:12;0.90;99.90
10276;DHT22;5183;51.190;6.820;2023-03-08T03:22:40;1.00;99.90
10276;DHT22;5183;51.190;6.820;2023-03-08T03:25:07;1.00;99.90
10276;DHT22;5183;51.190;6.820;2023-03-08T03:27:34;0.90;99.90
10276;DHT22;5183;51.190;6.820;2023-03-08T03:30:01;0.90;99.90
10276;DHT22;5183;51.190;6.820;2023-03-08T03:32:29;0.90;99.90
10276;DHT22;5183;51.190;6.820;2023-03-08T03:34:56;0.90;99.90
10276;DHT22;5183;51.190;6.820;2023-03-08T03:37:23;0.90;99.90
10276;DHT22;5183;51.190;6.820;2023-03-08T03:39:49;0.90;99.90
10276;DHT22;5183;51.190;6.820;2023-03-08T03:42:16;0.90;99.90
10276;DHT22;5183;51.190;6.820;2023-03-08T03:44:44;0.90;99.90
10276;DHT22;5183;51.190;6.820;2023-03-08T03:47:10;0.90;99.90
10276;DHT22;5183;51.190;6.820;2023-03-08T03:49:38;0.90;99.90
10276;DHT22;5183;51.190;6.820;2023-03-08T03:52:05;0.90;99.90
10276;DHT22;5183;51.190;6.820;2023-03-08T03:54:32;0.90;99.90
10276;DHT22;5183;51.190;6.820;2023-03-08T03:56:59;0.80;99.90
10276;DHT22;5183;51.190;6.820;2023-03-08T03:59:26;0.90;99.90
10276;DHT22;5183;51.190;6.820;2023-03-08T04:01:53;0.90;99.90
10276;DHT22;5183;51.190;6.820;2023-03-08T04:04:20;0.90;99.90
10276;DHT22;5183;51.190;6.820;2023-03-08T04:06:48;0.90;99.90
10276;DHT22;5183;51.190;6.820;2023-03-08T04:09:17;0.80;99.90
10276;DHT22;5183;51.190;6.820;2023-03-08T04:11:44;0.90;99.90
10276;DHT22;5183;51.190;6.820;2023-03-08T04:14:11;0.90;99.90
10276;DHT22;5183;51.190;6.820;2023-03-08T04:16:39;0.90;99.90
10276;DHT22;5183;51.190;6.820;2023-03-08T04:19:08;0.90;99.90
10276;DHT22;5183;51.190;6.820;2023-03-08T04:21:36;0.90;99.90
10276;DHT22;5183;51.190;6.820;2023-03-08T04:24:05;0.90;99.90
10276;DHT22;5183;51.190;6.820;2023-03-08T04:26:32;0.90;99.90
10276;DHT22;5183;51.190;6.820;2023-03-08T04:28:59;0.90;99.90
10276;DHT22;5183;51.190;6.820;2023-03-08T04:31:31;0.90;99.90
10276;DHT22;5183;51.190;6.820;2023-03-08T04:33:59;0.90;99.90
10276;DHT22;5183;51.190;6.820;2023-03-08T04:36:26;0.90;99.90
10276;DHT22;5183;51.190;6.820;2023-03-08T04:38:53;0.80;99.90
10276;DHT22;5183;51.190;6.820;2023-03-08T04:41:21;0.90;99.90
10276;DHT22;5183;51.190;6.820;2023-03-08T04:43:49;0.80;99.90
10276;DHT22;5183;51.190;6.820;2023-03-08T04:46:18;0.80;99.90
10276;DHT22;5183;51.190;6.820;2023-03-08T04:48:46;0.80;99.90
10276;DHT22;5183;51.190;6.820;2023-03-08T04:51:14;0.80;99.90
10276;DHT22;5183;51.190;6.820;2023-03-08T04:53:41;0.80;99.90
10276;DHT22;5183;51.190;6.820;2023-03-08T04:56:10;0.80;99.90
10276;DHT22;5183;51.190;6.820;2023-03-08T04:58:39;0.80;99.90
10276;DHT22;5183;51.190;6.820;2023-03-08T05:01:11;0.80;99.90
10276;DHT22;5183;51.190;6.820;2023-03-08T05:03:38;0.80;99.90
10276;DHT22;5183;51.190;6.820;2023-03-08T05:06:05;0.80;99.90
10276;DHT22;5183;51.190;6.820;2023-03-08T05:08:32;0.80;99.90
10276;DHT22;5183;51.190;6.820;2023-03-08T05:11:00;0.80;99.90
10276;DHT22;5183;51.190;6.820;2023-03-08T05:13:30;0.70;99.90
10276;DHT22;5183;51.190;6.820;2023-03-08T05:15:59;0.70;99.90
10276;DHT22;5183;51.190;6.820;2023-03-08T05:18:26;0.70;99.90
10276;DHT22;5183;51.190;6.820;2023-03-08T05:20:54;0.60;99.90
10276;DHT22;5183;51.190;6.820;2023-03-08T05:23:21;0.60;99.90
10276;DHT22;5183;51.190;6.820;2023-03-08T05:25:52;0.60;99.90
10276;DHT22;5183;51.190;6.820;2023-03-08T05:28:19;0.60;99.90
10276;DHT22;5183;51.190;6.820;2023-03-08T05:30:46;0.60;99.90
10276;DHT22;5183;51.190;6.820;2023-03-08T05:33:15;0.60;99.90
10276;DHT22;5183;51.190;6.820;2023-03-08T05:35:42;0.60;99.90
10276;DHT22;5183;51.190;6.820;2023-03-08T05:38:09;0.60;99.90
10276;DHT22;5183;51.190;6.820;2023-03-08T05:40:36;0.60;99.90
10276;DHT22;5183;51.190;6.820;2023-03-08T05:43:03;0.60;99.90
10276;DHT22;5183;51.190;6.820;2023-03-08T05:45:30;0.60;99.90
10276;DHT22;5183;51.190;6.820;2023-03-08T05:47:57;0.50;99.90
10276;DHT22;5183;51.190;6.820;2023-03-08T05:50:25;0.50;99.90
10276;DHT22;5183;51.190;6.820;2023-03-08T05:52:52;0.50;99.90
10276;DHT22;5183;51.190;6.820;2023-03-08T05:55:20;0.50;99.90
10276;DHT22;5183;51.190;6.820;2023-03-08T05:57:47;0.50;99.90
10276;DHT22;5183;51.190;6.820;2023-03-08T06:00:15;0.50;99.90
10276;DHT22;5183;51.190;6.820;2023-03-08T06:02:42;0.50;99.90
10276;DHT22;5183;51.190;6.820;2023-03-08T06:05:09;0.50;99.90
10276;DHT22;5183;51.190;6.820;2023-03-08T06:07:37;0.40;99.90
10276;DHT22;5183;51.190;6.820;2023-03-08T06:10:07;0.40;99.90
10276;DHT22;5183;51.190;6.820;2023-03-08T06:12:34;0.40;99.90
10276;DHT22;5183;51.190;6.820;2023-03-08T06:15:01;0.40;99.90
10276;DHT22;5183;51.190;6.820;2023-03-08T06:17:28;0.40;99.90
10276;DHT22;5183;51.190;6.820;2023-03-08T06:19:55;0.40;99.90
10276;DHT22;5183;51.190;6.820;2023-03-08T06:22:21;0.40;99.90
10276;DHT22;5183;51.190;6.820;2023-03-08T06:24:49;0.50;99.90
10276;DHT22;5183;51.190;6.820;2023-03-08T06:27:16;0.50;99.90
10276;DHT22;5183;51.190;6.820;2023-03-08T06:29:43;0.50;99.90
10276;DHT22;5183;51.190;6.820;2023-03-08T06:32:10;0.50;99.90
10276;DHT22;5183;51.190;6.820;2023-03-08T06:34:37;0.50;99.90
10276;DHT22;5183;51.190;6.820;2023-03-08T06:37:04;0.50;99.90
10276;DHT22;5183;51.190;6.820;2023-03-08T06:39:31;0.50;99.90
10276;DHT22;5183;51.190;6.820;2023-03-08T06:42:00;0.50;99.90
10276;DHT22;5183;51.190;6.820;2023-03-08T06:44:27;0.50;99.90
10276;DHT22;5183;51.190;6.820;2023-03-08T06:46:54;0.50;99.90
10276;DHT22;5183;51.190;6.820;2023-03-08T06:49:21;0.50;99.90
10276;DHT22;5183;51.190;6.820;2023-03-08T06:51:48;0.50;99.90
10276;DHT22;5183;51.190;6.820;2023-03-08T06:54:15;0.50;99.90
10276;DHT22;5183;51.190;6.820;2023-03-08T06:56:43;0.50;99.90
10276;DHT22;5183;51.190;6.820;2023-03-08T06:59:12;0.50;99.90
10276;DHT22;5183;51.190;6.820;2023-03-08T07:01:39;0.50;99.90
10276;DHT22;5183;51.190;6.820;2023-03-08T07:04:07;0.50;99.90
10276;DHT22;5183;51.190;6.820;2023-03-08T07:06:33;0.50;99.90
10276;DHT22;5183;51.190;6.820;2023-03-08T07:09:00;0.50;99.90
10276;DHT22;5183;51.190;6.820;2023-03-08T07:11:27;0.50;99.90
10276;DHT22;5183;51.190;6.820;2023-03-08T07:13:56;0.50;99.90
10276;DHT22;5183;51.190;6.820;2023-03-08T07:16:25;0.60;99.90
10276;DHT22;5183;51.190;6.820;2023-03-08T07:18:52;0.60;99.90
10276;DHT22;5183;51.190;6.820;2023-03-08T07:21:19;0.60;99.90
10276;DHT22;5183;51.190;6.820;2023-03-08T07:23:46;0.60;99.90
10276;DHT22;5183;51.190;6.820;2023-03-08T07:26:12;0.60;99.90
10276;DHT22;5183;51.190;6.820;2023-03-08T07:28:39;0.60;99.90
10276;DHT22;5183;51.190;6.820;2023-03-08T07:31:09;0.60;99.90
10276;DHT22;5183;51.190;6.820;2023-03-08T07:33:37;0.60;99.90
10276;DHT22;5183;51.190;6.820;2023-03-08T07:36:04;0.60;99.90
10276;DHT22;5183;51.190;6.820;2023-03-08T07:38:31;0.60;99.90
10276;DHT22;5183;51.190;6.820;2023-03-08T07:40:58;0.60;99.90
10276;DHT22;5183;51.190;6.820;2023-03-08T07:43:25;0.60;99.90
10276;DHT22;5183;51.190;6.820;2023-03-08T07:45:52;0.60;99.90
10276;DHT22;5183;51.190;6.820;2023-03-08T07:48:18;0.60;99.90
10276;DHT22;5183;51.190;6.820;2023-03-08T07:50:47;0.60;99.90
10276;DHT22;5183;51.190;6.820;2023-03-08T07:53:14;0.60;99.90
10276;DHT22;5183;51.190;6.820;2023-03-08T07:55:41;0.60;99.90
10276;DHT22;5183;51.190;6.820;2023-03-08T07:58:07;0.60;99.90
10276;DHT22;5183;51.190;6.820;2023-03-08T08:00:34;0.60;99.90
10276;DHT22;5183;51.190;6.820;2023-03-08T08:03:01;0.60;99.90
10276;DHT22;5183;51.190;6.820;2023-03-08T08:05:28;0.60;99.90
10276;DHT22;5183;51.190;6.820;2023-03-08T08:07:56;0.60;99.90
10276;DHT22;5183;51.190;6.820;2023-03-08T08:10:23;0.60;99.90
10276;DHT22;5183;51.190;6.820;2023-03-08T08:12:50;0.60;99.90
10276;DHT22;5183;51.190;6.820;2023-03-08T08:15:17;0.60;99.90
10276;DHT22;5183;51.190;6.820;2023-03-08T08:17:43;0.60;99.90
10276;DHT22;5183;51.190;6.820;2023-03-08T08:20:11;0.70;99.90
10276;DHT22;5183;51.190;6.820;2023-03-08T08:22:39;0.70;99.90
10276;DHT22;5183;51.190;6.820;2023-03-08T08:25:08;0.70;99.90
10276;DHT22;5183;51.190;6.820;2023-03-08T08:27:36;0.70;99.90
10276;DHT22;5183;51.190;6.820;2023-03-08T08:30:03;0.70;99.90
10276;DHT22;5183;51.190;6.820;2023-03-08T08:32:32;0.70;99.90
10276;DHT22;5183;51.190;6.820;2023-03-08T08:34:58;0.70;99.90
10276;DHT22;5183;51.190;6.820;2023-03-08T08:37:25;0.80;99.90
10276;DHT22;5183;51.190;6.820;2023-03-08T08:39:52;0.80;99.90
10276;DHT22;5183;51.190;6.820;2023-03-08T08:42:20;0.80;99.90
10276;DHT22;5183;51.190;6.820;2023-03-08T08:44:48;0.80;99.90
10276;DHT22;5183;51.190;6.820;2023-03-08T08:47:15;0.80;99.90
10276;DHT22;5183;51.190;6.820;2023-03-08T08:49:42;0.80;99.90
10276;DHT22;5183;51.190;6.820;2023-03-08T08:52:08;0.90;99.90
10276;DHT22;5183;51.190;6.820;2023-03-08T08:54:35;0.90;99.90
10276;DHT22;5183;51.190;6.820;2023-03-08T08:57:04;0.90;99.90
10276;DHT22;5183;51.190;6.820;2023-03-08T08:59:32;0.90;99.90
10276;DHT22;5183;51.190;6.820;2023-03-08T09:01:59;0.90;99.90
10276;DHT22;5183;51.190;6.820;2023-03-08T09:04:26;0.90;99.90
10276;DHT22;5183;51.190;6.820;2023-03-08T09:06:53;0.90;99.90
10276;DHT22;5183;51.190;6.820;2023-03-08T09:09:20;0.90;99.90
10276;DHT22;5183;51.190;6.820;2023-03-08T09:11:47;0.90;99.90
10276;DHT22;5183;51.190;6.820;2023-03-08T09:14:14;0.90;99.90
10276;DHT22;5183;51.190;6.820;2023-03-08T09:16:42;1.00;99.90
10276;DHT22;5183;51.190;6.820;2023-03-08T09:19:09;1.00;99.90
10276;DHT22;5183;51.190;6.820;2023-03-08T09:21:36;1.10;99.90
10276;DHT22;5183;51.190;6.820;2023-03-08T09:24:05;1.10;99.90
10276;DHT22;5183;51.190;6.820;2023-03-08T09:26:35;1.20;99.90
10276;DHT22;5183;51.190;6.820;2023-03-08T09:29:02;1.20;99.90
10276;DHT22;5183;51.190;6.820;2023-03-08T09:31:32;1.20;99.90
10276;DHT22;5183;51.190;6.820;2023-03-08T09:34:00;1.30;99.90
10276;DHT22;5183;51.190;6.820;2023-03-08T09:36:29;1.50;99.90
10276;DHT22;5183;51.190;6.820;2023-03-08T09:38:56;1.60;99.90
10276;DHT22;5183;51.190;6.820;2023-03-08T09:41:33;1.80;99.90
10276;DHT22;5183;51.190;6.820;2023-03-08T09:44:13;1.90;99.90
10276;DHT22;5183;51.190;6.820;2023-03-08T09:46:43;2.00;99.90
10276;DHT22;5183;51.190;6.820;2023-03-08T09:49:16;2.00;99.90
10276;DHT22;5183;51.190;6.820;2023-03-08T09:51:47;2.10;99.90
10276;DHT22;5183;51.190;6.820;2023-03-08T09:54:19;2.10;99.90
10276;DHT22;5183;51.190;6.820;2023-03-08T09:56:48;2.10;99.90
10276;DHT22;5183;51.190;6.820;2023-03-08T09:59:20;2.10;99.90
10276;DHT22;5183;51.190;6.820;2023-03-08T10:01:56;2.10;99.90
10276;DHT22;5183;51.190;6.820;2023-03-08T10:04:34;2.20;99.90
10276;DHT22;5183;51.190;6.820;2023-03-08T10:07:15;2.20;99.90
10276;DHT22;5183;51.190;6.820;2023-03-08T10:09:49;2.30;99.90
10276;DHT22;5183;51.190;6.820;2023-03-08T10:12:25;2.30;99.90
10276;DHT22;5183;51.190;6.820;2023-03-08T10:14:56;2.30;99.90
10276;DHT22;5183;51.190;6.820;2023-03-08T10:17:27;2.40;99.90
10276;DHT22;5183;51.190;6.820;2023-03-08T10:20:04;2.50;99.90
10276;DHT22;5183;51.190;6.820;2023-03-08T10:22:34;2.60;99.90
10276;DHT22;5183;51.190;6.820;2023-03-08T10:25:16;2.70;99.90
10276;DHT22;5183;51.190;6.820;2023-03-08T10:27:47;2.80;99.90
10276;DHT22;5183;51.190;6.820;2023-03-08T10:30:18;2.80;99.90
10276;DHT22;5183;51.190;6.820;2023-03-08T10:32:46;2.90;99.90
10276;DHT22;5183;51.190;6.820;2023-03-08T10:35:15;3.10;99.90
10276;DHT22;5183;51.190;6.820;2023-03-08T10:37:49;3.10;99.90
10276;DHT22;5183;51.190;6.820;2023-03-08T10:40:19;3.10;99.90
10276;DHT22;5183;51.190;6.820;2023-03-08T10:42:51;3.10;99.90
10276;DHT22;5183;51.190;6.820;2023-03-08T10:45:20;3.20;99.90
10276;DHT22;5183;51.190;6.820;2023-03-08T10:47:54;3.20;99.90
10276;DHT22;5183;51.190;6.820;2023-03-08T10:50:24;3.30;99.90
10276;DHT22;5183;51.190;6.820;2023-03-08T10:52:51;3.30;99.90
10276;DHT22;5183;51.190;6.820;2023-03-08T10:55:19;3.30;99.90
10276;DHT22;5183;51.190;6.820;2023-03-08T10:57:52;3.40;99.90
10276;DHT22;5183;51.190;6.820;2023-03-08T11:00:34;3.40;99.90
10276;DHT22;5183;51.190;6.820;2023-03-08T11:03:14;3.50;99.90
10276;DHT22;5183;51.190;6.820;2023-03-08T11:05:53;3.60;99.90
10276;DHT22;5183;51.190;6.820;2023-03-08T11:08:22;3.70;99.90
10276;DHT22;5183;51.190;6.820;2023-03-08T11:10:59;3.80;99.90
10276;DHT22;5183;51.190;6.820;2023-03-08T11:13:28;3.80;99.90
10276;DHT22;5183;51.190;6.820;2023-03-08T11:16:04;3.90;99.90
10276;DHT22;5183;51.190;6.820;2023-03-08T11:18:41;3.90;99.90
10276;DHT22;5183;51.190;6.820;2023-03-08T11:21:19;3.90;99.90
10276;DHT22;5183;51.190;6.820;2023-03-08T11:23:57;3.90;99.90
10276;DHT22;5183;51.190;6.820;2023-03-08T11:26:33;3.70;99.90
10276;DHT22;5183;51.190;6.820;2023-03-08T11:29:13;3.70;99.90
10276;DHT22;5183;51.190;6.820;2023-03-08T11:31:47;3.70;99.90
10276;DHT22;5183;51.190;6.820;2023-03-08T11:34:41;3.70;99.90
10276;DHT22;5183;51.190;6.820;2023-03-08T11:37:14;3.80;99.90
10276;DHT22;5183;51.190;6.820;2023-03-08T11:39:47;3.80;99.90
10276;DHT22;5183;51.190;6.820;2023-03-08T11:42:24;3.90;99.90
10276;DHT22;5183;51.190;6.820;2023-03-08T11:45:11;3.90;99.90
10276;DHT22;5183;51.190;6.820;2023-03-08T11:47:58;3.90;99.90
10276;DHT22;5183;51.190;6.820;2023-03-08T11:50:30;3.90;99.90
10276;DHT22;5183;51.190;6.820;2023-03-08T11:53:09;3.90;99.90
10276;DHT22;5183;51.190;6.820;2023-03-08T11:56:06;4.10;99.90
10276;DHT22;5183;51.190;6.820;2023-03-08T11:58:38;4.00;99.90
10276;DHT22;5183;51.190;6.820;2023-03-08T12:01:13;4.10;99.90
10276;DHT22;5183;51.190;6.820;2023-03-08T12:03:43;4.30;99.90
10276;DHT22;5183;51.190;6.820;2023-03-08T12:06:14;4.20;99.90
10276;DHT22;5183;51.190;6.820;2023-03-08T12:08:47;4.10;99.90
10276;DHT22;5183;51.190;6.820;2023-03-08T12:11:19;4.20;99.90
10276;DHT22;5183;51.190;6.820;2023-03-08T12:13:51;4.30;99.90
10276;DHT22;5183;51.190;6.820;2023-03-08T12:16:24;4.30;99.90
10276;DHT22;5183;51.190;6.820;2023-03-08T12:18:53;4.20;99.90
10276;DHT22;5183;51.190;6.820;2023-03-08T12:21:31;4.30;99.90
10276;DHT22;5183;51.190;6.820;2023-03-08T12:24:10;4.50;99.90
10276;DHT22;5183;51.190;6.820;2023-03-08T12:26:43;4.50;99.90
10276;DHT22;5183;51.190;6.820;2023-03-08T12:29:17;4.50;99.90
10276;DHT22;5183;51.190;6.820;2023-03-08T12:31:46;4.50;99.90
10276;DHT22;5183;51.190;6.820;2023-03-08T12:34:25;4.50;99.90
10276;DHT22;5183;51.190;6.820;2023-03-08T12:36:53;4.40;99.90
10276;DHT22;5183;51.190;6.820;2023-03-08T12:39:27;4.30;99.90
10276;DHT22;5183;51.190;6.820;2023-03-08T12:41:59;4.20;99.90
10276;DHT22;5183;51.190;6.820;2023-03-08T12:44:27;4.20;99.90
10276;DHT22;5183;51.190;6.820;2023-03-08T12:46:56;4.10;99.90
10276;DHT22;5183;51.190;6.820;2023-03-08T12:49:27;4.10;99.90
10276;DHT22;5183;51.190;6.820;2023-03-08T12:51:58;4.00;99.90
10276;DHT22;5183;51.190;6.820;2023-03-08T12:54:29;4.00;99.90
10276;DHT22;5183;51.190;6.820;2023-03-08T12:56:57;4.00;99.90
10276;DHT22;5183;51.190;6.820;2023-03-08T12:59:33;4.00;99.90
10276;DHT22;5183;51.190;6.820;2023-03-08T13:02:14;4.00;99.90
10276;DHT22;5183;51.190;6.820;2023-03-08T13:04:47;4.00;99.90
10276;DHT22;5183;51.190;6.820;2023-03-08T13:07:21;4.00;99.90
10276;DHT22;5183;51.190;6.820;2023-03-08T13:09:55;4.00;99.90
10276;DHT22;5183;51.190;6.820;2023-03-08T13:12:29;3.90;99.90
10276;DHT22;5183;51.190;6.820;2023-03-08T13:15:00;3.90;99.90
10276;DHT22;5183;51.190;6.820;2023-03-08T13:17:36;3.80;99.90
10276;DHT22;5183;51.190;6.820;2023-03-08T13:20:14;3.90;99.90
10276;DHT22;5183;51.190;6.820;2023-03-08T13:22:57;3.90;99.90
10276;DHT22;5183;51.190;6.820;2023-03-08T13:25:45;3.90;99.90
10276;DHT22;5183;51.190;6.820;2023-03-08T13:28:17;3.90;99.90
10276;DHT22;5183;51.190;6.820;2023-03-08T13:30:46;4.00;99.90
10276;DHT22;5183;51.190;6.820;2023-03-08T13:33:18;4.00;99.90
10276;DHT22;5183;51.190;6.820;2023-03-08T13:35:57;4.00;99.90
10276;DHT22;5183;51.190;6.820;2023-03-08T13:38:26;4.00;99.90
10276;DHT22;5183;51.190;6.820;2023-03-08T13:40:56;4.00;99.90
10276;DHT22;5183;51.190;6.820;2023-03-08T13:43:24;4.10;99.90
10276;DHT22;5183;51.190;6.820;2023-03-08T13:45:53;4.30;99.90
10276;DHT22;5183;51.190;6.820;2023-03-08T13:48:21;4.30;99.90
10276;DHT22;5183;51.190;6.820;2023-03-08T13:50:50;4.40;99.90
10276;DHT22;5183;51.190;6.820;2023-03-08T13:53:19;4.40;99.90
10276;DHT22;5183;51.190;6.820;2023-03-08T13:55:48;4.50;99.90
10276;DHT22;5183;51.190;6.820;2023-03-08T13:58:25;4.40;99.90
10276;DHT22;5183;51.190;6.820;2023-03-08T14:01:00;4.50;99.90
10276;DHT22;5183;51.190;6.820;2023-03-08T14:03:29;4.50;99.90
10276;DHT22;5183;51.190;6.820;2023-03-08T14:05:57;4.50;99.90
10276;DHT22;5183;51.190;6.820;2023-03-08T14:08:25;4.50;99.90
10276;DHT22;5183;51.190;6.820;2023-03-08T14:10:55;4.60;99.90
10276;DHT22;5183;51.190;6.820;2023-03-08T14:13:27;4.50;99.90
10276;DHT22;5183;51.190;6.820;2023-03-08T14:15:57;4.40;99.90
10276;DHT22;5183;51.190;6.820;2023-03-08T14:18:26;4.40;99.90
10276;DHT22;5183;51.190;6.820;2023-03-08T14:21:03;4.30;99.90
10276;DHT22;5183;51.190;6.820;2023-03-08T14:23:33;4.20;99.90
10276;DHT22;5183;51.190;6.820;2023-03-08T14:26:01;4.20;99.90
10276;DHT22;5183;51.190;6.820;2023-03-08T14:28:38;4.20;99.90
10276;DHT22;5183;51.190;6.820;2023-03-08T14:31:23;4.20;99.90
10276;DHT22;5183;51.190;6.820;2023-03-08T14:33:56;4.20;99.90
10276;DHT22;5183;51.190;6.820;2023-03-08T14:36:24;4.10;99.90
10276;DHT22;5183;51.190;6.820;2023-03-08T14:38:51;4.20;99.90
10276;DHT22;5183;51.190;6.820;2023-03-08T14:41:28;4.20;99.90
10276;DHT22;5183;51.190;6.820;2023-03-08T14:43:57;4.20;99.90
10276;DHT22;5183;51.190;6.820;2023-03-08T14:46:24;4.10;99.90
10276;DHT22;5183;51.190;6.820;2023-03-08T14:48:59;4.10;99.90
10276;DHT22;5183;51.190;6.820;2023-03-08T14:51:29;4.10;99.90
10276;DHT22;5183;51.190;6.820;2023-03-08T14:53:58;4.00;99.90
10276;DHT22;5183;51.190;6.820;2023-03-08T14:56:25;4.10;99.90
10276;DHT22;5183;51.190;6.820;2023-03-08T14:58:53;4.10;99.90
10276;DHT22;5183;51.190;6.820;2023-03-08T15:01:27;4.10;99.90
10276;DHT22;5183;51.190;6.820;2023-03-08T15:03:54;4.10;99.90
10276;DHT22;5183;51.190;6.820;2023-03-08T15:06:24;4.10;99.90
10276;DHT22;5183;51.190;6.820;2023-03-08T15:08:52;4.20;99.90
10276;DHT22;5183;51.190;6.820;2023-03-08T15:11:19;4.20;99.90
10276;DHT22;5183;51.190;6.820;2023-03-08T15:13:46;4.20;99.90
10276;DHT22;5183;51.190;6.820;2023-03-08T15:16:13;4.20;99.90
10276;DHT22;5183;51.190;6.820;2023-03-08T15:18:41;4.20;99.90
10276;DHT22;5183;51.190;6.820;2023-03-08T15:21:11;4.20;99.90
10276;DHT22;5183;51.190;6.820;2023-03-08T15:23:38;4.20;99.90
10276;DHT22;5183;51.190;6.820;2023-03-08T15:26:05;4.20;99.90
10276;DHT22;5183;51.190;6.820;2023-03-08T15:28:32;4.20;99.90
10276;DHT22;5183;51.190;6.820;2023-03-08T15:30:59;4.20;99.90
10276;DHT22;5183;51.190;6.820;2023-03-08T15:33:26;4.10;99.90
10276;DHT22;5183;51.190;6.820;2023-03-08T15:35:54;4.10;99.90
10276;DHT22;5183;51.190;6.820;2023-03-08T15:38:21;4.00;99.90
10276;DHT22;5183;51.190;6.820;2023-03-08T15:40:49;4.00;99.90
10276;DHT22;5183;51.190;6.820;2023-03-08T15:43:16;3.90;99.90
10276;DHT22;5183;51.190;6.820;2023-03-08T15:45:42;3.80;99.90
10276;DHT22;5183;51.190;6.820;2023-03-08T15:48:12;3.80;99.90
10276;DHT22;5183;51.190;6.820;2023-03-08T15:50:39;3.80;99.90
10276;DHT22;5183;51.190;6.820;2023-03-08T15:53:09;3.70;99.90
10276;DHT22;5183;51.190;6.820;2023-03-08T15:55:37;3.70;99.90
10276;DHT22;5183;51.190;6.820;2023-03-08T15:58:04;3.70;99.90
10276;DHT22;5183;51.190;6.820;2023-03-08T16:00:31;3.70;99.90
10276;DHT22;5183;51.190;6.820;2023-03-08T16:02:58;3.60;99.90
10276;DHT22;5183;51.190;6.820;2023-03-08T16:05:25;3.60;99.90
10276;DHT22;5183;51.190;6.820;2023-03-08T16:07:54;3.50;99.90
10276;DHT22;5183;51.190;6.820;2023-03-08T16:10:22;3.50;99.90
10276;DHT22;5183;51.190;6.820;2023-03-08T16:12:49;3.50;99.90
10276;DHT22;5183;51.190;6.820;2023-03-08T16:15:16;3.40;99.90